createdAt,value
2023-11-13T00:02:51.660Z,1.48
2023-11-13T00:05:54.403Z,1.42
2023-11-13T00:08:57.106Z,1.29
2023-11-13T00:12:00.010Z,1.30
2023-11-13T00:15:05.297Z,1.19
2023-11-13T00:18:08.418Z,1.16
2023-11-13T00:21:12.597Z,1.26
2023-11-13T00:24:15.342Z,1.16
2023-11-13T00:27:18.138Z,1.11
2023-11-13T00:30:21.528Z,0.88
2023-11-13T00:33:24.239Z,1.07
2023-11-13T00:36:26.998Z,1.21
2023-11-13T00:39:31.659Z,1.26
2023-11-13T00:42:34.405Z,1.16
2023-11-13T00:45:37.348Z,1.19
2023-11-13T00:48:41.503Z,1.08
2023-11-13T00:51:44.397Z,1.07
2023-11-13T00:54:47.179Z,0.97
2023-11-13T00:57:50.216Z,0.91
2023-11-13T01:00:53.035Z,0.96
2023-11-13T01:03:56.150Z,0.90
2023-11-13T01:06:59.216Z,0.90
2023-11-13T01:10:02.034Z,0.85
2023-11-13T01:13:04.852Z,0.77
2023-11-13T01:16:07.955Z,0.64
2023-11-13T01:19:10.801Z,0.61
2023-11-13T01:22:13.702Z,0.50
2023-11-13T01:25:16.576Z,0.56
2023-11-13T01:28:19.468Z,0.76
2023-11-13T01:31:22.766Z,0.59
2023-11-13T01:34:26.002Z,0.69
2023-11-13T01:37:28.728Z,0.66
2023-11-13T01:40:33.002Z,0.68
2023-11-13T01:43:35.764Z,0.65
2023-11-13T01:46:38.864Z,0.76
2023-11-13T01:49:42.584Z,0.75
2023-11-13T01:52:45.736Z,0.75
2023-11-13T01:55:48.842Z,0.91
2023-11-13T01:58:52.626Z,0.99
2023-11-13T02:01:56.579Z,0.92
2023-11-13T02:04:59.319Z,0.88
2023-11-13T02:08:02.159Z,0.98
2023-11-13T02:11:07.828Z,0.99
2023-11-13T02:14:10.704Z,1.09
2023-11-13T02:17:13.418Z,1.14
2023-11-13T02:20:16.126Z,1.37
2023-11-13T02:23:19.436Z,1.22
2023-11-13T02:26:25.309Z,1.09
2023-11-13T02:29:28.356Z,1.24
2023-11-13T02:32:31.057Z,1.01
2023-11-13T02:35:33.989Z,1.16
2023-11-13T02:38:38.244Z,0.91
2023-11-13T02:41:41.000Z,0.95
2023-11-13T02:44:43.838Z,1.25
2023-11-13T02:47:46.577Z,1.33
2023-11-13T02:50:53.139Z,1.34
2023-11-13T02:53:57.167Z,1.20
2023-11-13T02:56:59.913Z,0.83
2023-11-13T03:00:02.749Z,0.97
2023-11-13T03:03:05.556Z,0.86
2023-11-13T03:06:08.451Z,0.66
2023-11-13T03:09:12.198Z,0.92
2023-11-13T03:12:14.946Z,1.10
2023-11-13T03:15:17.759Z,1.06
2023-11-13T03:18:20.578Z,1.07
2023-11-13T03:21:24.635Z,1.16
2023-11-13T03:24:27.403Z,1.21
2023-11-13T03:27:30.103Z,1.43
2023-11-13T03:30:33.499Z,1.57
2023-11-13T03:33:36.637Z,1.35
2023-11-13T03:36:39.476Z,1.56
2023-11-13T03:39:43.643Z,1.77
2023-11-13T03:42:46.313Z,1.77
2023-11-13T03:45:49.091Z,1.83
2023-11-13T03:48:51.816Z,1.86
2023-11-13T03:51:55.808Z,1.74
2023-11-13T03:54:58.946Z,1.66
2023-11-13T03:58:01.702Z,1.77
2023-11-13T04:01:04.650Z,1.57
2023-11-13T04:04:07.503Z,1.75
2023-11-13T04:07:10.584Z,1.85
2023-11-13T04:10:16.384Z,1.64
2023-11-13T04:13:21.329Z,1.77
2023-11-13T04:16:24.221Z,1.79
2023-11-13T04:19:31.148Z,1.86
2023-11-13T04:22:35.077Z,1.87
2023-11-13T04:25:37.805Z,1.79
2023-11-13T04:28:41.571Z,1.85
2023-11-13T04:31:46.244Z,1.88
2023-11-13T04:34:48.994Z,1.89
2023-11-13T04:37:51.659Z,1.79
2023-11-13T04:40:54.448Z,1.75
2023-11-13T04:43:57.177Z,1.89
2023-11-13T04:47:00.031Z,1.87
2023-11-13T04:50:06.808Z,1.78
2023-11-13T04:53:09.600Z,1.68
2023-11-13T04:56:13.152Z,1.57
2023-11-13T04:59:15.847Z,1.85
2023-11-13T05:02:20.114Z,1.92
2023-11-13T05:05:22.840Z,1.90
2023-11-13T05:08:26.727Z,1.72
2023-11-13T05:11:29.410Z,1.67
2023-11-13T05:14:32.124Z,1.58
2023-11-13T05:17:38.612Z,1.56
2023-11-13T05:20:47.049Z,1.65
2023-11-13T05:23:51.039Z,1.68
2023-11-13T05:26:54.935Z,1.64
2023-11-13T05:29:57.705Z,1.78
2023-11-13T05:33:00.715Z,1.86
2023-11-13T05:36:03.861Z,1.82
2023-11-13T05:39:09.094Z,1.76
2023-11-13T05:42:11.838Z,1.74
2023-11-13T05:45:16.085Z,1.85
2023-11-13T05:48:18.927Z,1.77
2023-11-13T05:51:22.531Z,1.75
2023-11-13T05:54:26.005Z,1.76
2023-11-13T05:57:28.800Z,1.72
2023-11-13T06:00:32.394Z,1.86
2023-11-13T06:03:35.200Z,1.85
2023-11-13T06:06:38.018Z,2.22
2023-11-13T06:09:43.611Z,2.31
2023-11-13T06:12:46.463Z,2.53
2023-11-13T06:15:49.343Z,2.50
2023-11-13T06:18:52.344Z,2.58
2023-11-13T06:21:55.426Z,2.45
2023-11-13T06:24:58.621Z,2.67
2023-11-13T06:28:01.689Z,2.47
2023-11-13T06:31:04.643Z,2.56
2023-11-13T06:34:09.272Z,2.72
2023-11-13T06:37:12.015Z,2.81
2023-11-13T06:40:18.414Z,2.89
2023-11-13T06:43:21.752Z,2.88
2023-11-13T06:46:24.542Z,2.96
2023-11-13T06:49:27.584Z,2.99
2023-11-13T06:52:32.789Z,2.87
2023-11-13T06:55:35.765Z,2.83
2023-11-13T06:58:38.922Z,3.01
2023-11-13T07:01:44.785Z,3.06
2023-11-13T07:04:47.652Z,3.07
2023-11-13T07:07:52.256Z,2.88
2023-11-13T07:10:55.521Z,2.77
2023-11-13T07:13:58.229Z,3.00
2023-11-13T07:17:01.225Z,3.17
2023-11-13T07:20:07.909Z,3.16
2023-11-13T07:23:17.965Z,3.12
2023-11-13T07:26:20.896Z,3.12
2023-11-13T07:29:23.668Z,3.05
2023-11-13T07:32:26.526Z,3.22
2023-11-13T07:35:29.751Z,3.26
2023-11-13T07:38:32.600Z,3.17
2023-11-13T07:41:35.285Z,3.38
2023-11-13T07:44:40.246Z,3.43
2023-11-13T07:47:43.929Z,3.40
2023-11-13T07:50:57.239Z,3.38
2023-11-13T07:54:02.016Z,3.57
2023-11-13T07:57:05.353Z,3.76
2023-11-13T08:00:11.484Z,4.03
2023-11-13T08:03:19.974Z,4.58
2023-11-13T08:06:22.698Z,5.36
2023-11-13T08:09:25.385Z,8.66
2023-11-13T08:12:30.259Z,8.92
2023-11-13T08:15:33.465Z,10.16
2023-11-13T08:18:36.359Z,8.82
2023-11-13T08:21:39.034Z,9.75
2023-11-13T08:24:43.062Z,9.33
2023-11-13T08:27:47.875Z,10.18
2023-11-13T08:30:50.585Z,10.82
2023-11-13T08:33:56.569Z,8.85
2023-11-13T08:37:01.862Z,7.65
2023-11-13T08:40:06.852Z,7.09
2023-11-13T08:43:12.823Z,7.56
2023-11-13T08:46:16.271Z,7.78
2023-11-13T08:49:19.000Z,7.00
2023-11-13T08:52:21.772Z,6.93
2023-11-13T08:55:26.267Z,7.03
2023-11-13T08:58:29.174Z,6.44
2023-11-13T09:01:32.288Z,6.23
2023-11-13T09:04:36.200Z,9.19
2023-11-13T09:07:39.177Z,9.87
2023-11-13T09:10:46.196Z,7.65
2023-11-13T09:13:49.340Z,7.32
2023-11-13T09:16:52.279Z,6.99
2023-11-13T09:19:55.122Z,6.92
2023-11-13T09:23:01.162Z,7.83
2023-11-13T09:26:06.038Z,7.25
2023-11-13T09:29:12.076Z,7.83
2023-11-13T09:32:15.661Z,7.21
2023-11-13T09:35:25.722Z,7.00
2023-11-13T09:38:32.518Z,6.83
2023-11-13T09:41:40.216Z,6.47
2023-11-13T09:44:53.836Z,6.52
2023-11-13T09:48:05.534Z,6.52
2023-11-13T09:51:16.622Z,6.58
2023-11-13T09:54:30.188Z,6.40
2023-11-13T09:57:33.988Z,6.32
2023-11-13T10:00:37.317Z,6.54
2023-11-13T10:03:40.222Z,7.13
2023-11-13T10:06:53.435Z,7.75
2023-11-13T10:10:04.147Z,7.82
2023-11-13T10:13:11.463Z,7.35
2023-11-13T10:16:24.058Z,7.23
2023-11-13T10:19:27.854Z,7.37
2023-11-13T10:22:30.547Z,7.07
2023-11-13T10:25:58.821Z,7.06
2023-11-13T10:29:19.036Z,6.76
2023-11-13T11:26:35.184Z,6.50
2023-11-13T11:29:42.005Z,6.50
2023-11-13T11:32:56.462Z,6.46
2023-11-13T11:35:59.687Z,6.27
2023-11-13T11:39:13.244Z,6.24
2023-11-13T11:42:28.538Z,6.22
2023-11-13T11:45:31.280Z,6.09
2023-11-13T11:48:36.449Z,6.23
2023-11-13T11:51:40.227Z,6.26
2023-11-13T11:54:43.005Z,6.29
2023-11-13T11:57:47.218Z,6.49
2023-11-13T12:00:50.015Z,6.62
2023-11-13T12:03:53.848Z,6.58
2023-11-13T12:06:57.350Z,6.86
2023-11-13T12:10:01.493Z,6.85
2023-11-13T12:13:05.200Z,6.78
2023-11-13T12:16:08.186Z,6.56
2023-11-13T12:19:11.798Z,6.44
2023-11-13T12:22:14.590Z,6.53
2023-11-13T12:25:17.715Z,6.56
2023-11-13T12:28:22.357Z,6.52
2023-11-13T12:31:25.464Z,6.50
2023-11-13T12:34:31.779Z,6.49
2023-11-13T12:37:35.584Z,6.46
2023-11-13T12:40:38.918Z,6.55
2023-11-13T12:43:44.793Z,6.58
2023-11-13T12:46:49.357Z,6.71
2023-11-13T12:49:52.731Z,6.83
2023-11-13T12:52:56.738Z,6.87
2023-11-13T12:55:59.523Z,6.71
2023-11-13T12:59:02.319Z,6.56
2023-11-13T13:02:05.875Z,6.49
2023-11-13T13:05:22.942Z,6.52
2023-11-13T13:08:33.133Z,6.58
2023-11-13T13:11:39.604Z,6.56
2023-11-13T13:14:42.856Z,6.49
2023-11-13T13:17:45.798Z,6.48
2023-11-13T13:20:48.991Z,6.42
2023-11-13T13:23:51.688Z,6.31
2023-11-13T13:26:57.177Z,6.24
2023-11-13T13:29:59.996Z,6.17
2023-11-13T13:33:07.459Z,6.22
2023-11-13T13:36:10.780Z,6.17
2023-11-13T13:39:16.156Z,6.25
2023-11-13T13:42:19.049Z,6.33
2023-11-13T13:45:26.320Z,6.23
2023-11-13T13:48:33.219Z,6.26
2023-11-13T13:51:39.108Z,6.45
2023-11-13T13:54:42.344Z,6.65
2023-11-13T13:57:46.994Z,6.97
2023-11-13T14:00:50.571Z,6.87
2023-11-13T14:03:56.730Z,6.94
2023-11-13T14:07:01.897Z,6.97
2023-11-13T14:10:04.841Z,6.77
2023-11-13T14:13:07.605Z,6.74
2023-11-13T14:16:10.809Z,6.52
2023-11-13T14:19:15.822Z,6.46
2023-11-13T14:22:23.210Z,6.40
2023-11-13T14:25:28.228Z,6.25
2023-11-13T14:28:32.330Z,6.19
2023-11-13T14:31:35.163Z,6.14
2023-11-13T14:34:38.616Z,6.07
2023-11-13T14:37:41.396Z,6.19
2023-11-13T14:40:44.148Z,6.11
2023-11-13T14:43:46.980Z,6.07
2023-11-13T14:46:50.716Z,5.97
2023-11-13T14:49:53.435Z,5.93
2023-11-13T14:52:56.779Z,5.97
2023-11-13T14:56:00.048Z,5.86
2023-11-13T14:59:07.116Z,5.91
2023-11-13T15:02:10.754Z,6.06
2023-11-13T15:05:13.588Z,5.83
2023-11-13T15:08:18.193Z,5.65
2023-11-13T15:11:21.740Z,5.50
2023-11-13T15:14:24.494Z,5.43
2023-11-13T15:17:30.563Z,5.53
2023-11-13T15:20:35.542Z,5.38
2023-11-13T15:23:46.161Z,5.37
2023-11-13T15:26:49.935Z,5.48
2023-11-13T15:29:52.660Z,5.41
2023-11-13T15:33:01.107Z,5.58
2023-11-13T15:36:04.142Z,5.52
2023-11-13T15:39:09.973Z,5.40
2023-11-13T15:42:13.572Z,5.33
2023-11-13T15:45:16.349Z,5.33
2023-11-13T15:48:19.015Z,5.26
2023-11-13T15:51:21.722Z,5.41
2023-11-13T15:54:24.595Z,5.43
2023-11-13T15:57:27.783Z,5.30
2023-11-13T16:00:30.986Z,5.25
2023-11-13T16:03:40.324Z,5.26
2023-11-13T16:06:47.155Z,5.33
2023-11-13T16:09:50.082Z,5.37
2023-11-13T16:12:53.290Z,5.35
2023-11-13T16:15:55.977Z,5.25
2023-11-13T16:18:58.781Z,5.10
2023-11-13T16:22:01.521Z,5.01
2023-11-13T16:25:08.429Z,4.94
2023-11-13T16:28:11.808Z,4.88
2023-11-13T16:31:14.637Z,4.83
2023-11-13T16:34:19.541Z,4.83
2023-11-13T16:37:22.435Z,4.94
2023-11-13T16:40:25.256Z,5.00
2023-11-13T16:43:28.055Z,5.17
2023-11-13T16:46:30.761Z,4.96
2023-11-13T16:49:35.721Z,4.93
2023-11-13T16:52:39.545Z,5.02
2023-11-13T16:55:42.500Z,5.06
2023-11-13T16:58:45.247Z,5.07
2023-11-13T17:01:48.367Z,4.88
2023-11-13T17:04:51.175Z,4.92
2023-11-13T17:07:54.048Z,4.73
2023-11-13T17:10:58.371Z,4.89
2023-11-13T17:14:01.199Z,4.92
2023-11-13T17:17:04.210Z,4.98
2023-11-13T17:20:09.313Z,4.98
2023-11-13T17:23:13.013Z,4.93
2023-11-13T17:26:15.682Z,5.01
2023-11-13T17:29:18.419Z,5.01
2023-11-13T17:32:21.410Z,5.11
2023-11-13T17:35:24.237Z,5.14
2023-11-13T17:38:27.055Z,5.20
2023-11-13T17:41:30.415Z,5.14
2023-11-13T17:44:34.059Z,4.93
2023-11-13T17:47:37.110Z,5.03
2023-11-13T17:50:40.309Z,4.99
2023-11-13T17:53:43.140Z,4.94
2023-11-13T17:56:48.885Z,4.82
2023-11-13T17:59:51.663Z,4.74
2023-11-13T18:02:54.751Z,4.68
2023-11-13T18:05:57.515Z,4.66
2023-11-13T18:09:00.518Z,4.58
2023-11-13T18:12:04.663Z,4.62
2023-11-13T18:15:10.574Z,4.59
2023-11-13T18:18:13.548Z,4.55
2023-11-13T18:21:16.363Z,4.54
2023-11-13T18:24:19.772Z,4.58
2023-11-13T18:27:22.623Z,4.71
2023-11-13T18:30:25.678Z,4.90
2023-11-13T18:33:30.944Z,4.99
2023-11-13T18:36:34.691Z,4.97
2023-11-13T18:39:39.055Z,4.96
2023-11-13T18:42:42.288Z,4.94
2023-11-13T18:45:46.690Z,4.83
2023-11-13T18:48:49.454Z,5.05
2023-11-13T18:51:52.334Z,5.07
2023-11-13T18:54:55.118Z,4.92
2023-11-13T18:57:58.702Z,4.87
2023-11-13T19:01:01.626Z,5.00
2023-11-13T19:04:04.916Z,4.87
2023-11-13T19:07:08.480Z,4.83
2023-11-13T19:10:11.271Z,4.88
2023-11-13T19:13:14.508Z,4.91
2023-11-13T19:16:17.317Z,4.86
2023-11-13T19:19:20.055Z,4.96
2023-11-13T19:22:23.126Z,5.00
2023-11-13T19:25:26.714Z,4.81
2023-11-13T19:28:30.072Z,4.91
2023-11-13T19:31:33.115Z,4.88
2023-11-13T19:34:36.278Z,4.86
2023-11-13T19:37:39.025Z,4.87
2023-11-13T19:40:42.926Z,5.10
2023-11-13T19:43:47.746Z,5.06
2023-11-13T19:46:51.588Z,5.12
2023-11-13T19:49:54.694Z,5.14
2023-11-13T19:52:57.686Z,5.14
2023-11-13T19:56:00.990Z,5.21
2023-11-13T19:59:04.880Z,5.17
2023-11-13T20:02:07.933Z,5.26
2023-11-13T20:05:11.123Z,5.14
2023-11-13T20:08:14.423Z,5.09
2023-11-13T20:11:24.388Z,5.16
2023-11-13T20:14:27.463Z,5.16
2023-11-13T20:17:31.692Z,5.18
2023-11-13T20:20:36.666Z,5.15
2023-11-13T20:23:39.340Z,5.08
2023-11-13T20:26:42.407Z,5.07
2023-11-13T20:29:45.887Z,5.08
2023-11-13T20:32:50.452Z,5.12
2023-11-13T20:35:53.910Z,5.12
2023-11-13T20:38:57.684Z,5.11
2023-11-13T20:42:01.044Z,5.11
2023-11-13T20:45:05.979Z,5.14
2023-11-13T20:48:09.814Z,5.16
2023-11-13T20:51:12.714Z,5.13
2023-11-13T20:54:15.760Z,5.12
2023-11-13T20:57:18.607Z,5.14
2023-11-13T21:00:21.637Z,5.13
2023-11-13T21:03:24.692Z,5.13
2023-11-13T21:06:27.559Z,5.11
2023-11-13T21:09:31.567Z,5.14
2023-11-13T21:12:34.939Z,5.12
2023-11-13T21:15:37.933Z,5.23
2023-11-13T21:18:40.633Z,5.20
2023-11-13T21:21:43.312Z,5.22
2023-11-13T21:24:46.065Z,5.26
2023-11-13T21:27:48.786Z,5.30
2023-11-13T21:30:52.187Z,5.40
2023-11-13T21:33:55.211Z,5.31
2023-11-13T21:36:57.943Z,5.28
2023-11-13T21:40:00.671Z,5.41
2023-11-13T21:43:03.335Z,5.31
2023-11-13T21:46:09.340Z,5.29
2023-11-13T21:49:12.061Z,5.50
2023-11-13T21:52:14.984Z,5.54
2023-11-13T21:55:17.812Z,5.41
2023-11-13T21:58:20.878Z,5.49
2023-11-13T22:01:24.785Z,5.56
2023-11-13T22:04:27.850Z,5.50
2023-11-13T22:07:30.565Z,5.52
2023-11-13T22:10:33.919Z,5.44
2023-11-13T22:13:37.699Z,5.58
2023-11-13T22:16:40.480Z,5.44
2023-11-13T22:19:43.218Z,5.49
2023-11-13T22:22:46.030Z,5.52
2023-11-13T22:25:49.006Z,5.57
2023-11-13T22:28:51.792Z,5.48
2023-11-13T22:31:54.616Z,5.52
2023-11-13T22:34:57.448Z,5.66
2023-11-13T22:38:00.248Z,5.56
2023-11-13T22:41:04.477Z,5.69
2023-11-13T22:44:07.876Z,5.74
2023-11-13T22:47:11.907Z,5.68
2023-11-13T22:50:14.648Z,5.61
2023-11-13T22:53:17.390Z,5.57
2023-11-13T22:56:20.177Z,5.67
2023-11-13T22:59:22.816Z,5.64
2023-11-13T23:02:25.575Z,5.67
2023-11-13T23:05:28.654Z,5.61
2023-11-13T23:08:31.427Z,5.60
2023-11-13T23:11:34.117Z,5.67
2023-11-13T23:14:38.410Z,5.66
2023-11-13T23:17:41.830Z,5.77
2023-11-13T23:20:44.672Z,5.69
2023-11-13T23:23:47.747Z,5.76
2023-11-13T23:26:50.463Z,5.71
2023-11-13T23:29:53.087Z,5.73
2023-11-13T23:32:55.924Z,5.66
2023-11-13T23:35:59.130Z,5.70
2023-11-13T23:39:01.826Z,5.80
2023-11-13T23:42:05.069Z,5.74
2023-11-13T23:45:08.248Z,5.71
2023-11-13T23:48:10.906Z,5.87
2023-11-13T23:51:13.665Z,5.73
2023-11-13T23:54:16.324Z,5.76
2023-11-13T23:57:19.051Z,5.87
